Fort Bragg, North Carolina
Current Conditions -  °F | °C
As of 1:23 PM on Saturday 20 Dec 2014 (Local Time) from KPOB Reporting Station
Overcast Overcast  
Wind Chill: 34°   Ceiling: 700
Heat Index: 39°   Visibility: 10mi
Dew Point: 36°   Wind: 7mph
Humidity: 87%   Direction: 60°ENE
Pressure: 30.25"   Gusts: NA
Location:  35.14°N, 79°W
Report Text: KPOB 201823Z AUTO 06006KT 10SM OVC007 04/02 A3025 RMK AO2
Loading
Personal Weather Stations






























Interactive Weather Map New forecast layout! Learn more

10-Day Weather Forecast

Advertisements
Track Severe Weather on mobile